Time;durP1;ratioP1;P1;durP2;ratioP2;P2;SDS_P1;SDS_P2;PMS_P1;PMS_P2;Temp;Humidity;BMP_temperature;BMP_pressure;BME280_temperature;BME280_humidity;BME280_pressure;Samples;Min_cycle;Max_cycle;Signal;HPM_P1;HPM_P2
2022/05/28 00:00:37;;;;;;;12.88;4.75;;;;;;;15.48;64.53;99463.31;5164180;28;20120;-79
2022/05/28 00:03:29;;;;;;;10.90;5.18;;;;;;;15.72;65.56;99497.31;5173271;28;20057;-79
2022/05/28 00:06:21;;;;;;;11.30;4.40;;;;;;;15.54;65.49;99467.19;5167752;28;20057;-80
2022/05/28 00:09:11;;;;;;;10.65;5.22;;;;;;;15.63;65.08;99479.53;5161441;28;20062;-79
2022/05/28 00:12:01;;;;;;;11.68;5.07;;;;;;;15.63;66.15;99493.78;5165921;28;20061;-80
2022/05/28 00:14:51;;;;;;;10.25;4.95;;;;;;;15.56;66.90;99476.69;5151062;28;20047;-80
2022/05/28 00:17:42;;;;;;;7.65;4.65;;;;;;;15.71;66.09;99474.25;5151190;28;20105;-80
2022/05/28 00:20:32;;;;;;;17.25;5.13;;;;;;;15.61;65.73;99469.03;5138291;28;20189;-81
2022/05/28 00:23:23;;;;;;;12.02;5.03;;;;;;;15.85;65.93;99508.34;5181975;28;20050;-82
2022/05/28 00:26:14;;;;;;;12.27;4.93;;;;;;;15.66;66.06;99485.47;5155320;28;20571;-81
2022/05/28 00:29:06;;;;;;;13.65;4.63;;;;;;;15.58;64.82;99495.25;5164695;28;20046;-80
2022/05/28 00:31:56;;;;;;;12.18;4.38;;;;;;;15.80;63.66;99509.88;5160243;28;20081;-81
2022/05/28 00:34:47;;;;;;;10.48;4.15;;;;;;;15.55;63.92;99514.28;5168593;28;20135;-79
2022/05/28 00:37:37;;;;;;;7.50;3.72;;;;;;;15.40;61.21;99490.88;5166414;28;20065;-79
2022/05/28 00:40:27;;;;;;;9.95;3.42;;;;;;;15.43;59.58;99482.53;5154908;28;20112;-80
2022/05/28 00:43:17;;;;;;;13.38;3.83;;;;;;;15.52;60.24;99502.06;5166990;28;20065;-81
2022/05/28 00:46:13;;;;;;;20.90;3.95;;;;;;;15.54;60.50;99512.63;5162029;28;20420;-82
2022/05/28 00:49:07;;;;;;;11.43;3.75;;;;;;;15.50;60.00;99531.66;5165333;28;20520;-80
2022/05/28 00:52:00;;;;;;;12.90;3.70;;;;;;;15.56;61.36;99522.13;5164526;28;20074;-80
2022/05/28 00:54:52;;;;;;;10.05;3.85;;;;;;;15.20;61.12;99521.53;5164837;28;20046;-80
2022/05/28 00:57:44;;;;;;;11.97;3.60;;;;;;;15.11;60.35;99527.81;5153751;28;20050;-82
2022/05/28 01:00:37;;;;;;;8.15;3.50;;;;;;;15.09;59.42;99521.78;5171823;28;20274;-78
2022/05/28 01:03:53;;;;;;;12.77;3.65;;;;;;;15.05;58.76;99539.97;5157638;28;20054;-80
2022/05/28 01:07:08;;;;;;;17.35;3.97;;;;;;;15.14;60.12;99536.34;5161547;28;20058;-79
2022/05/28 01:10:17;;;;;;;9.95;2.80;;;;;;;15.26;56.68;99518.19;5154334;28;20058;-81
2022/05/28 01:13:20;;;;;;;17.10;3.38;;;;;;;15.14;56.90;99535.53;5166185;28;20509;-80
2022/05/28 01:16:22;;;;;;;12.63;2.90;;;;;;;15.14;57.04;99536.34;5167371;28;20077;-80
2022/05/28 01:19:41;;;;;;;12.07;3.00;;;;;;;15.43;54.65;99521.75;5165323;28;20134;-79
2022/05/28 01:22:38;;;;;;;13.13;2.85;;;;;;;15.13;56.13;99524.00;5169525;28;20054;-80
2022/05/28 01:26:02;;;;;;;9.95;3.03;;;;;;;14.97;57.96;99523.94;5168194;28;20519;-82
2022/05/28 01:29:07;;;;;;;11.23;2.95;;;;;;;15.12;56.33;99524.16;5173370;28;20051;-81
2022/05/28 01:31:59;;;;;;;15.35;3.45;;;;;;;14.99;57.57;99524.59;5166182;28;20061;-80
2022/05/28 01:34:51;;;;;;;13.18;3.33;;;;;;;14.43;58.08;99505.34;5165050;28;20101;-81
2022/05/28 01:37:44;;;;;;;14.32;3.60;;;;;;;14.82;57.60;99520.16;5164461;28;20054;-81
2022/05/28 01:40:35;;;;;;;12.30;3.28;;;;;;;14.81;58.11;99508.66;5165727;28;20157;-78
2022/05/28 01:43:27;;;;;;;8.93;2.97;;;;;;;14.84;57.42;99492.31;5164736;28;20056;-79
2022/05/28 01:46:20;;;;;;;15.48;3.70;;;;;;;14.80;57.85;99517.63;5159734;28;20058;-80
2022/05/28 01:49:13;;;;;;;16.13;3.78;;;;;;;14.60;57.89;99505.50;5151588;28;20448;-81
2022/05/28 01:52:04;;;;;;;9.13;3.70;;;;;;;14.54;58.93;99517.66;5165134;28;20080;-81
2022/05/28 01:54:57;;;;;;;12.88;4.07;;;;;;;14.30;59.85;99527.13;5164830;28;20057;-81
2022/05/28 01:57:47;;;;;;;19.30;4.20;;;;;;;14.13;61.47;99524.47;5145056;28;20070;-80
2022/05/28 02:00:37;;;;;;;16.10;4.30;;;;;;;14.39;60.95;99525.34;5164813;28;20064;-81
2022/05/28 02:03:31;;;;;;;13.48;4.15;;;;;;;14.17;60.48;99510.69;5144990;28;20145;-82
2022/05/28 02:06:21;;;;;;;15.07;2.83;;;;;;;14.08;58.10;99499.09;5160643;28;20062;-81
2022/05/28 02:09:17;;;;;;;17.75;3.78;;;;;;;14.07;58.21;99510.78;5165884;28;20520;-79
2022/05/28 02:12:30;;;;;;;11.95;3.35;;;;;;;14.10;56.67;99513.13;5164307;28;20076;-81
2022/05/28 02:15:46;;;;;;;7.88;2.92;;;;;;;14.13;57.26;99511.97;5167028;28;20485;-79
2022/05/28 02:18:47;;;;;;;13.70;3.22;;;;;;;14.15;56.14;99512.66;5169999;28;20104;-81
2022/05/28 02:21:45;;;;;;;13.52;3.08;;;;;;;13.74;56.10;99516.75;5162810;28;20069;-79
2022/05/28 02:24:44;;;;;;;14.20;2.67;;;;;;;13.85;56.02;99521.88;5161260;28;20420;-80
2022/05/28 02:27:38;;;;;;;15.40;3.20;;;;;;;13.70;57.38;99507.41;5157489;28;20452;-79
2022/05/28 02:30:30;;;;;;;10.77;2.65;;;;;;;13.33;56.67;99500.34;5159981;28;20136;-79
2022/05/28 02:33:21;;;;;;;12.73;2.80;;;;;;;13.63;56.50;99499.16;5150324;28;20065;-80
2022/05/28 02:36:13;;;;;;;16.17;2.95;;;;;;;13.57;56.27;99513.91;5166573;28;20050;-80
2022/05/28 02:39:03;;;;;;;11.55;3.25;;;;;;;13.56;57.17;99498.09;5152262;28;20061;-79
2022/05/28 02:41:54;;;;;;;25.85;3.53;;;;;;;13.34;58.26;99513.53;5165497;28;20050;-80
2022/05/28 02:44:45;;;;;;;14.57;2.80;;;;;;;13.00;57.84;99515.06;5164209;28;20061;-81
2022/05/28 02:47:35;;;;;;;12.32;2.47;;;;;;;13.35;56.57;99509.03;5151049;28;20057;-81
2022/05/28 02:50:29;;;;;;;14.70;2.35;;;;;;;13.27;56.86;99508.94;5154404;28;20675;-80
2022/05/28 02:53:19;;;;;;;20.00;3.50;;;;;;;13.12;58.40;99497.91;5147871;28;20101;-81
2022/05/28 02:56:10;;;;;;;13.95;2.78;;;;;;;13.39;56.43;99513.91;5162840;28;20081;-79
2022/05/28 02:59:01;;;;;;;12.50;3.00;;;;;;;13.10;57.50;99514.03;5168339;22;20150;-69
2022/05/28 03:01:52;;;;;;;13.27;3.08;;;;;;;12.95;57.55;99523.50;5201455;28;20071;-69
2022/05/28 03:04:42;;;;;;;17.40;3.53;;;;;;;12.82;58.27;99505.19;5201286;28;20137;-68
2022/05/28 03:07:33;;;;;;;19.05;3.03;;;;;;;12.63;59.76;99511.41;5180772;28;20053;-69
2022/05/28 03:10:23;;;;;;;18.38;3.15;;;;;;;12.68;58.90;99501.19;5180361;28;20546;-69
2022/05/28 03:13:13;;;;;;;17.08;4.32;;;;;;;12.45;59.79;99513.97;5181680;28;20147;-69
2022/05/28 03:16:04;;;;;;;15.45;3.25;;;;;;;12.63;59.37;99519.38;5181407;28;20050;-69
2022/05/28 03:18:55;;;;;;;12.77;2.92;;;;;;;12.32;60.61;99512.59;5179047;28;20042;-69
2022/05/28 03:21:45;;;;;;;20.85;3.35;;;;;;;12.02;59.89;99487.00;5181262;28;20058;-69
2022/05/28 03:24:35;;;;;;;13.45;2.85;;;;;;;12.15;59.68;99512.34;5185426;28;20057;-69
2022/05/28 03:27:25;;;;;;;14.50;3.25;;;;;;;12.28;59.33;99525.31;5184163;28;20060;-69
2022/05/28 03:30:16;;;;;;;14.88;2.70;;;;;;;12.15;59.01;99520.31;5185335;28;20064;-69
2022/05/28 03:33:06;;;;;;;9.77;2.88;;;;;;;12.13;59.00;99519.59;5185280;28;20113;-69
2022/05/28 03:35:56;;;;;;;13.20;3.33;;;;;;;12.09;59.40;99525.34;5181298;28;20180;-69
2022/05/28 03:38:47;;;;;;;17.25;2.63;;;;;;;11.95;59.96;99521.28;5185720;28;20534;-69
2022/05/28 03:41:37;;;;;;;13.30;2.75;;;;;;;11.94;59.60;99528.41;5180793;28;20261;-68
2022/05/28 03:44:27;;;;;;;12.57;2.63;;;;;;;11.89;59.40;99532.47;5184934;28;20136;-68
2022/05/28 03:47:18;;;;;;;12.55;3.00;;;;;;;11.85;60.67;99529.22;5179021;28;20061;-68
2022/05/28 03:50:08;;;;;;;14.93;3.45;;;;;;;11.99;61.41;99528.00;5184225;28;20060;-68
2022/05/28 03:52:58;;;;;;;11.98;3.33;;;;;;;11.94;60.77;99538.19;5178215;28;20049;-68
2022/05/28 03:55:49;;;;;;;9.60;2.45;;;;;;;11.75;60.91;99545.16;5184777;28;20071;-68
2022/05/28 03:58:39;;;;;;;14.80;2.92;;;;;;;11.59;61.76;99538.69;5185242;28;20065;-68
2022/05/28 04:01:29;;;;;;;17.20;3.13;;;;;;;11.45;61.79;99537.25;5185014;28;20064;-68
2022/05/28 04:04:20;;;;;;;13.50;3.08;;;;;;;11.46;62.18;99547.75;5184574;28;20068;-68
2022/05/28 04:07:11;;;;;;;11.02;2.90;;;;;;;11.57;62.63;99544.13;5184860;28;20530;-69
2022/05/28 04:10:03;;;;;;;9.93;2.83;;;;;;;11.63;62.11;99556.88;5184997;28;20050;-69
2022/05/28 04:12:53;;;;;;;18.02;3.65;;;;;;;11.44;62.53;99554.16;5184659;28;20056;-69
2022/05/28 04:15:43;;;;;;;8.48;2.85;;;;;;;11.46;62.75;99560.19;5184253;28;20057;-69
2022/05/28 04:18:33;;;;;;;14.27;3.00;;;;;;;11.47;62.11;99548.59;5184862;28;20060;-69
2022/05/28 04:21:24;;;;;;;12.18;3.35;;;;;;;11.54;61.46;99560.34;5182677;28;20431;-68
2022/05/28 04:24:14;;;;;;;16.35;3.00;;;;;;;11.44;62.07;99556.81;5184766;28;20053;-69
2022/05/28 04:27:05;;;;;;;14.65;3.50;;;;;;;11.55;62.65;99564.66;5184590;28;20049;-69
2022/05/28 04:29:55;;;;;;;10.70;3.30;;;;;;;11.46;61.95;99568.16;5178415;28;20096;-69
2022/05/28 04:32:45;;;;;;;14.85;3.22;;;;;;;11.60;62.28;99570.44;5184210;28;20128;-69
2022/05/28 04:35:35;;;;;;;13.32;2.90;;;;;;;11.70;60.33;99565.97;5183267;28;20056;-69
2022/05/28 04:38:25;;;;;;;14.60;3.03;;;;;;;11.59;60.99;99571.41;5180693;28;20139;-69
2022/05/28 04:41:16;;;;;;;11.45;2.58;;;;;;;11.84;60.90;99569.22;5183528;28;20061;-69
2022/05/28 04:44:06;;;;;;;12.45;2.55;;;;;;;11.84;60.09;99563.91;5180096;28;20523;-69
2022/05/28 04:46:56;;;;;;;12.45;3.33;;;;;;;11.81;61.51;99575.63;5182986;28;20057;-69
2022/05/28 04:49:47;;;;;;;15.40;3.53;;;;;;;11.95;60.60;99583.25;5169540;28;20593;-69
2022/05/28 04:52:38;;;;;;;15.50;3.15;;;;;;;11.98;60.36;99574.97;5183388;28;20054;-68
2022/05/28 04:55:28;;;;;;;16.95;2.97;;;;;;;12.14;60.82;99579.75;5177264;28;20050;-69
2022/05/28 04:58:18;;;;;;;18.52;2.80;;;;;;;12.39;60.74;99591.66;5183028;28;20416;-69
2022/05/28 05:01:17;;;;;;;18.13;3.10;;;;;;;12.39;59.71;99586.34;5183355;28;20088;-68
2022/05/28 05:04:07;;;;;;;14.50;2.58;;;;;;;12.51;58.92;99584.34;5183690;28;20126;-69
2022/05/28 05:06:58;;;;;;;13.60;2.85;;;;;;;12.64;58.75;99587.56;5183585;28;20052;-69
2022/05/28 05:09:48;;;;;;;12.15;2.67;;;;;;;12.61;59.24;99590.50;5180457;28;20098;-69
2022/05/28 05:12:39;;;;;;;19.38;3.05;;;;;;;12.65;58.21;99583.94;5172831;28;20052;-68
2022/05/28 05:15:33;;;;;;;12.93;3.13;;;;;;;12.65;58.89;99573.28;5180641;28;20153;-69
2022/05/28 05:18:23;;;;;;;17.58;2.83;;;;;;;12.80;58.03;99586.13;5177643;28;20097;-69
2022/05/28 05:21:14;;;;;;;14.63;2.63;;;;;;;12.92;57.90;99592.97;5175880;28;20052;-69
2022/05/28 05:24:05;;;;;;;14.88;2.80;;;;;;;12.97;56.85;99582.72;5176899;28;20069;-68
2022/05/28 05:26:55;;;;;;;11.40;2.78;;;;;;;13.04;57.38;99581.16;5178231;28;20537;-69
2022/05/28 05:29:46;;;;;;;12.18;2.58;;;;;;;13.12;58.30;99589.28;5173517;28;20057;-69
2022/05/28 05:32:36;;;;;;;10.98;2.53;;;;;;;13.22;56.91;99594.56;5170443;28;20139;-69
2022/05/28 05:35:26;;;;;;;16.45;2.60;;;;;;;13.29;57.26;99593.03;5169401;28;20056;-68
2022/05/28 05:38:16;;;;;;;16.52;2.47;;;;;;;13.41;55.98;99601.69;5180733;28;20046;-69
2022/05/28 05:41:06;;;;;;;18.48;3.13;;;;;;;13.19;54.71;99591.34;5172232;28;20175;-69
2022/05/28 05:43:56;;;;;;;16.63;2.95;;;;;;;13.13;56.80;99584.78;5175571;28;20451;-69
2022/05/28 05:46:47;;;;;;;16.38;2.72;;;;;;;13.24;56.22;99592.59;5180670;28;20837;-69
2022/05/28 05:49:37;;;;;;;15.27;2.55;;;;;;;13.29;57.23;99609.00;5180999;28;20192;-69
2022/05/28 05:52:28;;;;;;;12.40;2.40;;;;;;;13.23;56.65;99606.88;5182755;28;20064;-69
2022/05/28 05:55:18;;;;;;;16.67;3.45;;;;;;;13.09;56.17;99605.53;5181671;28;20061;-69
2022/05/28 05:58:09;;;;;;;12.35;2.72;;;;;;;13.45;55.13;99611.03;5182859;28;20176;-69
2022/05/28 06:00:59;;;;;;;10.27;2.25;;;;;;;13.43;54.91;99607.69;5181555;28;20180;-69
2022/05/28 06:03:49;;;;;;;10.88;2.70;;;;;;;13.57;54.97;99614.34;5175174;28;20277;-69
2022/05/28 06:06:40;;;;;;;10.85;2.72;;;;;;;13.50;56.49;99602.59;5183043;28;20050;-69
2022/05/28 06:09:31;;;;;;;9.52;2.42;;;;;;;13.79;55.47;99608.63;5176834;28;20050;-69
2022/05/28 06:12:22;;;;;;;12.05;2.67;;;;;;;13.43;55.35;99609.50;5181120;28;20088;-69
2022/05/28 06:15:13;;;;;;;14.27;2.70;;;;;;;13.62;54.74;99599.59;5181426;28;20559;-70
2022/05/28 06:18:03;;;;;;;13.20;2.50;;;;;;;13.46;54.39;99612.72;5182636;28;20416;-69
2022/05/28 06:20:54;;;;;;;15.80;2.85;;;;;;;13.54;56.30;99612.84;5181984;28;20053;-69
2022/05/28 06:23:44;;;;;;;13.75;2.78;;;;;;;13.83;52.76;99614.47;5178514;28;20058;-69
2022/05/28 06:26:35;;;;;;;16.60;2.53;;;;;;;13.48;54.44;99609.91;5181187;28;20111;-71
2022/05/28 06:29:26;;;;;;;14.65;2.72;;;;;;;13.40;54.48;99613.28;5179992;28;20479;-71
2022/05/28 06:32:17;;;;;;;8.40;2.05;;;;;;;13.85;52.83;99609.84;5174761;28;20223;-73
2022/05/28 06:35:09;;;;;;;15.80;2.15;;;;;;;14.07;52.52;99614.75;5179512;28;20139;-73
2022/05/28 06:37:59;;;;;;;11.20;2.30;;;;;;;14.28;52.75;99610.97;5183228;28;20053;-71
2022/05/28 06:40:50;;;;;;;11.45;2.55;;;;;;;14.36;52.39;99619.03;5182088;28;20432;-71
2022/05/28 06:43:40;;;;;;;10.05;2.53;;;;;;;13.69;53.14;99605.16;5181890;28;20167;-70
2022/05/28 06:46:31;;;;;;;11.77;2.35;;;;;;;13.77;53.27;99612.41;5177431;28;20702;-72
2022/05/28 06:49:24;;;;;;;12.75;2.67;;;;;;;14.10;52.03;99610.94;5181919;28;20064;-70
2022/05/28 06:52:14;;;;;;;12.43;2.65;;;;;;;14.32;52.48;99620.31;5177011;28;20428;-70
2022/05/28 06:55:06;;;;;;;10.77;2.30;;;;;;;14.64;52.15;99608.31;5180865;28;20061;-72
2022/05/28 06:57:56;;;;;;;10.75;1.85;;;;;;;14.23;48.76;99610.56;5177526;28;20042;-71
2022/05/28 07:00:46;;;;;;;15.63;1.98;;;;;;;15.91;47.05;99609.31;5181648;28;20512;-72
2022/05/28 07:03:38;;;;;;;10.95;1.88;;;;;;;16.45;45.39;99598.19;5176357;28;20052;-70
2022/05/28 07:06:31;;;;;;;8.57;1.80;;;;;;;17.65;43.66;99601.00;5182819;28;20125;-69
2022/05/28 07:09:22;;;;;;;7.85;1.85;;;;;;;16.56;44.43;99602.41;5182449;28;20053;-71
2022/05/28 07:12:12;;;;;;;8.00;1.80;;;;;;;17.35;43.10;99603.47;5181834;28;20061;-69
2022/05/28 07:15:03;;;;;;;11.35;1.85;;;;;;;18.81;40.83;99594.72;5176760;28;20050;-70
2022/05/28 07:17:53;;;;;;;11.18;2.38;;;;;;;18.99;39.24;99604.13;5174633;28;20508;-70
2022/05/28 07:20:44;;;;;;;12.20;2.05;;;;;;;18.87;41.31;99602.06;5174240;28;20050;-71
2022/05/28 07:23:35;;;;;;;9.07;2.03;;;;;;;19.40;40.10;99590.25;5178537;28;20084;-71
2022/05/28 07:26:25;;;;;;;8.40;1.38;;;;;;;19.04;41.78;99586.59;5186436;28;20049;-73
2022/05/28 07:29:15;;;;;;;8.00;1.48;;;;;;;20.39;36.91;99578.97;5181140;28;20065;-73
2022/05/28 07:32:07;;;;;;;12.90;1.50;;;;;;;19.33;39.82;99577.72;5180462;28;20430;-70
2022/05/28 07:34:58;;;;;;;7.28;1.80;;;;;;;18.19;40.82;99577.75;5173962;28;20102;-69
2022/05/28 07:37:49;;;;;;;10.23;1.77;;;;;;;19.70;39.63;99566.88;5180609;28;20543;-69
2022/05/28 07:40:39;;;;;;;8.50;1.90;;;;;;;20.84;36.36;99568.81;5178389;28;20076;-69
2022/05/28 07:43:30;;;;;;;13.65;1.95;;;;;;;19.79;39.49;99572.13;5181337;28;20062;-70
2022/05/28 07:46:23;;;;;;;11.25;1.92;;;;;;;20.70;37.25;99572.44;5184460;28;20567;-69
2022/05/28 07:49:13;;;;;;;6.65;1.38;;;;;;;20.26;36.74;99568.06;5168212;28;20049;-70
2022/05/28 07:52:04;;;;;;;11.73;2.03;;;;;;;21.21;35.69;99556.81;5180041;28;20053;-70
2022/05/28 07:54:54;;;;;;;7.47;1.67;;;;;;;21.29;34.93;99542.31;5182711;28;20046;-70
2022/05/28 07:57:45;;;;;;;7.93;2.00;;;;;;;21.58;36.17;99558.25;5180774;28;20049;-70
2022/05/28 08:00:44;;;;;;;7.15;1.50;;;;;;;19.93;38.86;99555.09;5181336;28;20076;-70
2022/05/28 08:03:35;;;;;;;9.10;1.60;;;;;;;19.77;36.81;99558.03;5193028;28;20050;-72
2022/05/28 08:06:26;;;;;;;10.15;2.13;;;;;;;18.35;41.12;99562.56;5182081;28;20183;-70
2022/05/28 08:09:16;;;;;;;8.85;1.60;;;;;;;19.42;39.40;99560.47;5179596;28;20072;-71
2022/05/28 08:12:07;;;;;;;10.07;1.63;;;;;;;20.68;38.84;99548.38;5175625;28;20106;-70
2022/05/28 08:14:58;;;;;;;5.90;1.65;;;;;;;21.49;36.44;99548.69;5186457;28;20547;-71
2022/05/28 08:17:49;;;;;;;8.95;1.63;;;;;;;20.97;38.18;99544.66;5180657;28;20046;-72
2022/05/28 08:23:54;;;;;;;5.32;1.67;;;;;;;22.82;34.85;99545.41;5166630;28;20484;-70
2022/05/28 08:26:44;;;;;;;9.43;1.95;;;;;;;21.34;37.86;99539.88;5168551;28;20590;-71
2022/05/28 08:29:35;;;;;;;6.50;1.48;;;;;;;20.64;36.39;99526.38;5187183;28;20058;-70
2022/05/28 08:32:25;;;;;;;10.35;1.88;;;;;;;20.97;35.77;99524.94;5180456;28;20506;-71
2022/05/28 08:35:16;;;;;;;7.28;1.73;;;;;;;21.34;37.56;99531.78;5186438;28;20050;-70
2022/05/28 08:38:09;;;;;;;6.50;1.60;;;;;;;21.17;37.49;99525.06;5183377;28;20081;-71
2022/05/28 08:41:18;;;;;;;6.07;1.45;;;;;;;19.44;37.34;99523.50;5185166;28;20050;-71
2022/05/28 08:44:14;;;;;;;7.88;1.30;;;;;;;20.85;36.52;99513.88;5182494;28;20116;-71
2022/05/28 08:47:22;;;;;;;5.18;1.17;;;;;;;21.83;34.26;99524.53;5184290;28;20137;-71
2022/05/28 08:50:13;;;;;;;9.57;1.30;;;;;;;21.50;35.29;99536.88;5183272;28;20061;-71
2022/05/28 08:53:11;;;;;;;6.22;1.60;;;;;;;21.53;36.87;99512.19;5184844;28;20057;-71
2022/05/28 08:56:01;;;;;;;7.82;1.63;;;;;;;21.40;36.52;99532.88;5170519;28;20084;-70
2022/05/28 08:59:03;;;;;;;8.82;1.70;;;;;;;21.26;35.87;99522.00;5186925;28;20069;-70
2022/05/28 09:01:53;;;;;;;7.85;1.45;;;;;;;20.86;35.75;99535.25;5184248;28;20547;-69
2022/05/28 09:04:45;;;;;;;11.80;1.95;;;;;;;18.96;40.00;99533.78;5182708;28;20420;-69
2022/05/28 09:07:35;;;;;;;6.65;1.75;;;;;;;18.61;39.79;99532.59;5186934;28;20072;-69
2022/05/28 09:10:30;;;;;;;11.35;2.00;;;;;;;19.39;39.89;99531.28;5184873;28;20049;-70
2022/05/28 09:13:29;;;;;;;4.28;1.15;;;;;;;20.14;38.96;99517.44;5183671;28;20609;-70
2022/05/28 09:16:26;;;;;;;25.35;2.28;;;;;;;21.21;36.65;99515.53;5181331;28;20116;-69
2022/05/28 09:19:19;;;;;;;8.18;1.52;;;;;;;21.44;34.52;99518.78;5182715;28;20115;-71
2022/05/28 09:22:10;;;;;;;7.07;1.30;;;;;;;20.51;36.89;99506.59;5182225;28;20108;-71
2022/05/28 09:25:00;;;;;;;8.80;1.88;;;;;;;17.74;39.93;99528.38;5178305;28;20093;-69
2022/05/28 09:28:11;;;;;;;6.22;1.48;;;;;;;17.98;39.53;99518.53;5182419;28;20050;-71
2022/05/28 09:31:39;;;;;;;8.50;1.88;;;;;;;18.65;40.54;99494.47;5180169;28;20073;-72
2022/05/28 09:34:48;;;;;;;6.43;1.73;;;;;;;18.51;39.70;99519.47;5181503;28;20065;-69
2022/05/28 09:37:58;;;;;;;9.75;1.70;;;;;;;19.86;42.29;99511.16;5181854;28;20061;-69
2022/05/28 09:40:52;;;;;;;6.32;1.40;;;;;;;19.28;39.59;99512.94;5179201;28;20670;-69
2022/05/28 09:43:52;;;;;;;7.70;1.40;;;;;;;17.64;41.55;99510.84;5186993;22;20064;-82
2022/05/28 09:46:44;;;;;;;11.60;2.03;;;;;;;17.14;41.93;99492.31;5161634;28;20073;-82
2022/05/28 09:49:52;;;;;;;11.60;1.80;;;;;;;17.69;43.25;99498.59;5156694;28;20065;-82
2022/05/28 09:56:23;;;;;;;7.95;1.85;;;;;;;18.40;41.52;99507.28;5107352;28;20051;-82
2022/05/28 09:59:26;;;;;;;7.28;1.60;;;;;;;19.48;40.31;99477.19;5125924;28;20066;-82
2022/05/28 10:02:21;;;;;;;10.27;1.85;;;;;;;19.37;42.04;99499.19;5134258;28;20062;-82
2022/05/28 10:05:20;;;;;;;7.75;1.63;;;;;;;19.73;39.68;99486.78;5142674;28;20066;-82
2022/05/28 10:08:13;;;;;;;12.63;1.95;;;;;;;19.57;42.15;99487.81;5141877;28;20688;-83
2022/05/28 10:11:05;;;;;;;10.00;1.55;;;;;;;19.87;38.72;99473.28;5141233;28;20057;-82
2022/05/28 10:14:00;;;;;;;8.18;1.92;;;;;;;18.74;40.28;99479.09;5119163;28;20078;-83
2022/05/28 10:16:55;;;;;;;7.00;1.48;;;;;;;19.09;39.05;99485.59;5143440;28;20050;-82
2022/05/28 10:19:47;;;;;;;8.07;1.63;;;;;;;19.36;38.59;99481.38;5121896;28;20149;-82
2022/05/28 10:22:38;;;;;;;10.90;2.65;;;;;;;18.83;39.19;99461.88;5140908;28;20077;-82
2022/05/28 10:25:38;;;;;;;8.60;1.77;;;;;;;18.90;39.39;99470.03;5143686;28;20141;-82
2022/05/28 10:28:46;;;;;;;9.32;1.38;;;;;;;19.59;37.68;99467.78;5121247;28;20413;-82
2022/05/28 10:31:40;;;;;;;7.60;1.58;;;;;;;18.99;38.09;99479.69;5139134;28;20673;-79
2022/05/28 10:34:38;;;;;;;4.75;1.13;;;;;;;18.82;39.36;99459.41;5135503;28;20489;-79
2022/05/28 10:37:28;;;;;;;6.40;1.33;;;;;;;18.02;38.15;99461.66;5152639;28;20077;-82
2022/05/28 10:40:24;;;;;;;6.75;1.75;;;;;;;19.13;38.32;99451.13;5128627;28;20085;-81
2022/05/28 10:43:38;;;;;;;6.30;1.40;;;;;;;19.99;36.51;99460.13;5141342;28;20411;-80
2022/05/28 10:46:48;;;;;;;11.40;1.40;;;;;;;20.07;36.25;99468.09;5139987;28;20054;-80
2022/05/28 10:50:13;;;;;;;7.07;1.17;;;;;;;20.48;36.35;99463.84;5139680;28;20043;-81
2022/05/28 10:53:08;;;;;;;4.40;1.10;;;;;;;20.23;35.25;99464.31;5155714;28;20061;-81
2022/05/28 10:56:17;;;;;;;3.08;0.85;;;;;;;19.98;34.20;99463.88;5142514;28;20113;-80
2022/05/28 10:59:24;;;;;;;9.05;1.38;;;;;;;19.60;39.12;99456.03;5145561;28;20062;-80
2022/05/28 11:02:47;;;;;;;5.43;1.70;;;;;;;18.98;37.81;99449.28;5140287;28;20058;-82
2022/05/28 11:06:04;;;;;;;15.85;2.20;;;;;;;20.91;38.93;99459.19;5140220;28;20058;-81
2022/05/28 11:09:01;;;;;;;6.07;1.38;;;;;;;21.22;37.21;99455.16;5139905;28;20051;-82
2022/05/28 11:12:03;;;;;;;5.80;1.15;;;;;;;21.51;35.50;99437.88;5142045;28;20579;-83
2022/05/28 11:15:10;;;;;;;2.60;0.88;;;;;;;21.35;34.07;99444.44;5130569;28;20564;-82
2022/05/28 11:18:44;;;;;;;8.45;1.33;;;;;;;21.55;36.50;99444.50;5145973;28;20043;-84
2022/05/28 11:21:38;;;;;;;;;;;;;;;22.15;37.42;99434.66;5128596;28;20066;-81
2022/05/28 11:24:49;;;;;;;16.42;5.40;;;;;;;22.07;34.00;99429.44;5116461;28;20002;-83
2022/05/28 11:28:10;;;;;;;9.25;2.45;;;;;;;20.46;33.67;99412.84;5140769;28;20058;-84
2022/05/28 11:31:28;;;;;;;8.18;1.52;;;;;;;20.36;32.80;99424.00;5133096;28;20484;-83
2022/05/28 11:34:25;;;;;;;5.35;1.42;;;;;;;20.32;33.68;99413.81;5147796;28;20595;-85
2022/05/28 11:37:19;;;;;;;6.25;1.38;;;;;;;20.00;36.82;99402.59;5149402;28;20094;-84
2022/05/28 11:40:19;;;;;;;7.95;1.40;;;;;;;19.30;36.15;99404.16;5127166;28;20122;-84
2022/05/28 11:43:20;;;;;;;9.32;1.40;;;;;;;19.91;35.43;99393.84;5136658;28;20130;-83
2022/05/28 11:46:26;;;;;;;9.18;1.75;;;;;;;20.06;36.72;99406.34;5133769;28;20057;-81
2022/05/28 11:53:09;;;;;;;5.88;1.23;;;;;;;19.17;39.06;99404.88;5153950;28;20126;-85
2022/05/28 11:56:11;;;;;;;7.47;1.35;;;;;;;19.64;37.55;99403.53;5144183;28;20065;-85
2022/05/28 11:59:09;;;;;;;7.15;1.42;;;;;;;19.18;37.00;99357.31;5150214;28;20424;-86
2022/05/28 12:02:14;;;;;;;6.97;1.20;;;;;;;20.06;38.84;99388.34;5152081;28;20134;-83
2022/05/28 12:05:15;;;;;;;7.25;1.63;;;;;;;19.10;35.41;99342.13;5129626;29;20062;-85
2022/05/28 12:08:06;;;;;;;4.57;1.08;;;;;;;18.46;38.04;99377.69;5133605;28;20531;-82
2022/05/28 12:11:02;;;;;;;7.20;1.88;;;;;;;18.13;38.45;99361.09;5146299;28;20047;-83
2022/05/28 12:13:56;;;;;;;4.90;1.20;;;;;;;18.29;39.71;99358.22;5147010;28;20106;-83
2022/05/28 12:17:01;;;;;;;5.60;1.33;;;;;;;19.03;39.22;99360.03;5145177;28;20142;-82
2022/05/28 12:20:11;;;;;;;14.13;2.05;;;;;;;17.95;37.51;99349.88;5131471;28;20133;-81
2022/05/28 12:23:04;;;;;;;5.35;1.20;;;;;;;18.36;38.94;99336.03;5143981;28;20061;-82
2022/05/28 12:25:54;;;;;;;9.85;1.63;;;;;;;18.93;39.29;99340.69;5131546;28;20066;-80
2022/05/28 12:28:51;;;;;;;6.65;1.10;;;;;;;20.27;37.03;99333.63;5143113;28;20053;-82
2022/05/28 12:31:41;;;;;;;14.02;1.25;;;;;;;21.01;36.67;99351.81;5124354;29;20114;-81
2022/05/28 12:34:32;;;;;;;6.88;1.40;;;;;;;20.57;36.25;99330.72;5124439;29;20102;-82
2022/05/28 12:37:35;;;;;;;7.72;1.35;;;;;;;20.53;36.31;99341.06;5125359;29;20174;-81
2022/05/28 12:40:35;;;;;;;4.72;0.95;;;;;;;19.92;37.06;99338.13;5114186;28;20493;-83
2022/05/28 12:43:27;;;;;;;13.15;6.93;;;;;;;20.21;37.69;99330.91;5144858;28;20050;-79
2022/05/28 12:46:33;;;;;;;33.22;2.45;;;;;;;20.62;34.19;99310.19;5150319;28;20054;-80
2022/05/28 12:49:29;;;;;;;11.18;1.80;;;;;;;19.77;35.07;99315.88;5156480;28;20050;-80
2022/05/28 12:52:19;;;;;;;7.32;1.75;;;;;;;19.04;39.00;99315.16;5145045;28;20055;-80
2022/05/28 12:55:12;;;;;;;13.55;1.67;;;;;;;20.65;37.53;99314.34;5142390;28;20062;-81
2022/05/28 12:58:26;;;;;;;5.70;1.00;;;;;;;20.47;33.82;99296.03;5129174;28;20129;-82
2022/05/28 13:01:25;;;;;;;4.25;1.05;;;;;;;19.27;36.08;99293.47;5119468;28;20081;-81
2022/05/28 13:04:19;;;;;;;4.05;1.00;;;;;;;18.78;38.18;99295.06;5140530;28;20059;-80
2022/05/28 13:07:27;;;;;;;5.07;1.10;;;;;;;18.99;38.60;99296.94;5142965;28;20109;-81
2022/05/28 13:10:24;;;;;;;5.00;1.50;;;;;;;19.79;38.09;99292.31;5142471;28;20062;-81
2022/05/28 13:13:29;;;;;;;6.38;1.10;;;;;;;19.06;37.15;99297.00;5142899;28;20050;-81
2022/05/28 13:16:45;;;;;;;4.38;1.10;;;;;;;18.97;35.84;99274.78;5142888;28;20524;-81
2022/05/28 13:20:00;;;;;;;5.18;0.95;;;;;;;18.90;36.98;99290.00;5142941;28;20047;-82
2022/05/28 13:23:28;;;;;;;7.93;1.55;;;;;;;19.16;37.82;99284.91;5135195;28;20066;-79
2022/05/28 13:26:28;;;;;;;6.03;0.90;;;;;;;19.58;35.36;99277.00;5143875;28;20148;-80
2022/05/28 13:29:23;;;;;;;3.45;0.70;;;;;;;19.06;33.99;99276.34;5130467;28;20101;-81
2022/05/28 13:32:16;;;;;;;6.55;0.75;;;;;;;19.33;35.08;99269.34;5142039;28;20491;-80
2022/05/28 13:35:13;;;;;;;7.53;1.02;;;;;;;18.99;34.61;99251.25;5143230;28;20054;-81
2022/05/28 13:38:04;;;;;;;4.95;1.10;;;;;;;19.40;34.78;99262.19;5143564;28;20063;-80
2022/05/28 13:40:55;;;;;;;5.65;1.13;;;;;;;19.07;35.99;99267.25;5128450;28;20128;-81
2022/05/28 13:43:53;;;;;;;10.45;1.63;;;;;;;19.74;37.28;99263.31;5142429;28;20668;-81
2022/05/28 13:46:51;;;;;;;6.25;1.25;;;;;;;20.03;36.56;99250.63;5129715;28;20055;-81
2022/05/28 13:49:52;;;;;;;4.25;1.00;;;;;;;20.05;34.18;99256.66;5142743;28;20049;-80